Columbia Falls, MT (59912)

3:27 PM MST on February 07, 2016 (GMT -0700)
Tamarack Lane | | Change Station
CLOSE
Current Station
Personal Weather Station
Location: Columbia Falls, Mt
Elevation: 3133 ft
Nearby Weather Stations

Elev 3133 ft 48.38 °N, 114.19 °W | Updated 17 minutes ago

Overcast
Overcast
36.7 °F
Feels Like 37 °F
N
2.5
Wind Variable Wind from West
Gusts 2.5 mph

Today
High -- | Low -- °F
--% Chance of Precip.
Yesterday
High -- | Low -- °F
Precip. -- in
Pressure 30.49 in
Visibility 10.0 miles
Clouds Few 11000 ft
Windchill 37 °F
Dew Point 25 °F
Humidity 63%
Rainfall 0.00 in
Snow Depth Not available.
7:57 AM 5:45 PM
Waning Crescent, 1% visible
METAR KCTB 072156Z AUTO 25018KT 10SM FEW110 05/M11 A3039 RMK AO2 SLP323 T00501111 TSNO
Pressure 30.49 in
Visibility 10.0 miles
Clouds Few 11000 ft
Windchill 37 °F
Dew Point 25 °F
Humidity 63%
Rainfall 0.00 in
Snow Depth Not available.
7:57 AM 5:45 PM
Waning Crescent, 1% visible
METAR KCTB 072156Z AUTO 25018KT 10SM FEW110 05/M11 A3039 RMK AO2 SLP323 T00501111 TSNO

10-Day Weather Forecast

Almanac

Astronomy

Feb. 07, 2016 Rise Set
Actual Time
Civil Twilight
Nautical Twilight
Astronomical Twilight
Moon
Length of Visible Light
Length of Day
Tomorrow will be .
, % of the Moon is Illuminated

Today's Extremes

State Highs State Lows

Community

WunderPhotos

Upload Photos

1,891,318 photos uploaded!

WunderBlog® & News

Nearby

Air Quality

  Air Quality AQ Index Pollutant
Not available.

Snow Depth

Station Depth Elevation

Earthquake Activity

City Distance Mag. Time & Date
Minimum magnitude displayed is 2.5.

Coastal Water Temperatures

Place Temperature

Stations

Nearby Weather Stations

Station Location Temp. Windchill Dew Point Humidity Wind Precip. Elev Updated Type
                   

Watches & Warnings

There are currently no watches in effect.